createdAt,value
2022-11-19T00:01:22.619Z,11.30
2022-11-19T00:03:52.640Z,11.53
2022-11-19T00:06:24.686Z,11.03
2022-11-19T00:08:52.880Z,11.20
2022-11-19T00:11:46.394Z,11.20
2022-11-19T00:14:15.696Z,12.83
2022-11-19T00:16:43.742Z,14.60
2022-11-19T00:19:12.109Z,14.87
2022-11-19T00:21:39.675Z,12.63
2022-11-19T00:24:07.316Z,12.30
2022-11-19T00:26:35.789Z,12.20
2022-11-19T00:29:02.702Z,14.07
2022-11-19T00:31:30.577Z,15.03
2022-11-19T00:33:57.043Z,14.03
2022-11-19T00:36:25.066Z,12.60
2022-11-19T00:38:52.725Z,13.57
2022-11-19T00:41:20.035Z,14.53
2022-11-19T00:43:48.144Z,12.60
2022-11-19T00:46:28.175Z,13.47
2022-11-19T00:48:57.678Z,13.07
2022-11-19T00:51:27.854Z,12.20
2022-11-19T00:53:55.033Z,13.90
2022-11-19T00:56:24.813Z,15.97
2022-11-19T00:58:52.016Z,12.80
2022-11-19T01:01:20.749Z,11.90
2022-11-19T01:03:47.493Z,13.53
2022-11-19T01:06:19.044Z,13.80
2022-11-19T01:08:48.195Z,13.07
2022-11-19T01:11:19.056Z,13.10
2022-11-19T01:13:46.228Z,12.57
2022-11-19T01:16:15.269Z,14.27
2022-11-19T01:18:43.705Z,10.43
2022-11-19T01:21:11.864Z,10.23
2022-11-19T01:23:39.680Z,10.73
2022-11-19T01:26:07.014Z,11.87
2022-11-19T01:28:33.974Z,12.57
2022-11-19T01:31:01.232Z,10.80
2022-11-19T01:33:28.929Z,12.97
2022-11-19T01:36:00.337Z,12.97
2022-11-19T01:38:28.427Z,11.83
2022-11-19T01:40:55.928Z,9.67
2022-11-19T01:43:48.113Z,11.57
2022-11-19T01:46:17.634Z,12.77
2022-11-19T01:49:24.311Z,11.17
2022-11-19T01:51:58.091Z,13.80
2022-11-19T01:54:36.387Z,11.23
2022-11-19T01:57:04.913Z,10.87
2022-11-19T01:59:31.995Z,12.33
2022-11-19T02:01:59.118Z,12.60
2022-11-19T02:04:26.074Z,14.73
2022-11-19T02:06:52.958Z,13.10
2022-11-19T02:09:19.992Z,11.77
2022-11-19T02:12:20.782Z,12.97
2022-11-19T02:15:00.393Z,13.73
2022-11-19T02:17:36.163Z,14.07
2022-11-19T02:20:42.144Z,13.47
2022-11-19T02:23:27.260Z,12.67
2022-11-19T02:26:23.107Z,11.03
2022-11-19T02:28:56.927Z,10.97
2022-11-19T02:31:39.692Z,12.57
2022-11-19T02:34:14.396Z,13.13
2022-11-19T02:37:00.835Z,12.00
2022-11-19T02:39:40.003Z,11.20
2022-11-19T02:42:17.239Z,11.60
2022-11-19T02:45:14.695Z,13.77
2022-11-19T02:47:45.340Z,13.53
2022-11-19T02:50:24.989Z,12.60
2022-11-19T02:52:51.616Z,13.73
2022-11-19T02:55:20.408Z,12.73
2022-11-19T02:58:07.260Z,13.20
2022-11-19T03:01:08.911Z,12.13
2022-11-19T03:03:54.743Z,15.43
2022-11-19T03:06:25.377Z,15.20
2022-11-19T03:08:52.017Z,17.13
2022-11-19T03:11:27.067Z,14.57
2022-11-19T03:14:15.211Z,15.00
2022-11-19T03:16:47.724Z,17.07
2022-11-19T03:19:35.808Z,16.60
2022-11-19T03:22:10.434Z,13.73
2022-11-19T03:24:43.244Z,12.97
2022-11-19T03:27:16.201Z,14.10
2022-11-19T03:29:49.012Z,14.67
2022-11-19T03:32:22.025Z,14.27
2022-11-19T03:34:51.004Z,15.07
2022-11-19T03:37:19.340Z,12.77
2022-11-19T03:39:47.336Z,14.30
2022-11-19T03:42:16.173Z,16.10
2022-11-19T03:44:58.959Z,12.43
2022-11-19T03:47:31.340Z,11.90
2022-11-19T03:50:03.197Z,11.80
2022-11-19T03:52:29.688Z,14.63
2022-11-19T03:54:56.276Z,12.57
2022-11-19T03:57:24.300Z,13.17
2022-11-19T03:59:50.861Z,13.53
2022-11-19T04:02:17.641Z,14.10
2022-11-19T04:04:44.167Z,15.67
2022-11-19T04:07:12.087Z,11.53
2022-11-19T04:09:39.522Z,14.20
2022-11-19T04:12:06.851Z,12.17
2022-11-19T04:14:33.456Z,13.30
2022-11-19T04:17:00.052Z,13.90
2022-11-19T04:19:26.504Z,14.80
2022-11-19T04:21:53.141Z,15.77
2022-11-19T04:24:19.598Z,12.70
2022-11-19T04:26:46.127Z,15.63
2022-11-19T04:29:12.800Z,14.57
2022-11-19T04:31:39.460Z,13.37
2022-11-19T04:34:05.933Z,12.63
2022-11-19T04:36:32.652Z,14.10
2022-11-19T04:38:59.280Z,12.77
2022-11-19T04:41:25.972Z,13.40
2022-11-19T04:43:52.450Z,16.67
2022-11-19T04:46:18.980Z,10.93
2022-11-19T04:48:45.450Z,12.03
2022-11-19T04:51:11.900Z,12.60
2022-11-19T04:53:38.409Z,12.90
2022-11-19T04:56:05.590Z,12.47
2022-11-19T04:58:32.050Z,13.87
2022-11-19T05:00:58.510Z,14.47
2022-11-19T05:03:24.971Z,11.57
2022-11-19T05:05:51.488Z,13.33
2022-11-19T05:08:18.151Z,16.00
2022-11-19T05:10:44.839Z,13.23
2022-11-19T05:13:11.269Z,15.07
2022-11-19T05:15:37.685Z,12.87
2022-11-19T05:18:04.235Z,13.13
2022-11-19T05:20:30.667Z,13.97
2022-11-19T05:22:57.144Z,14.63
2022-11-19T05:25:23.649Z,12.73
2022-11-19T05:27:50.089Z,11.97
2022-11-19T05:30:17.070Z,16.83
2022-11-19T05:32:43.510Z,13.47
2022-11-19T05:35:10.462Z,13.00
2022-11-19T05:37:37.023Z,16.30
2022-11-19T05:40:03.836Z,14.90
2022-11-19T05:42:30.352Z,14.50
2022-11-19T05:44:56.890Z,14.97
2022-11-19T05:47:23.446Z,14.30
2022-11-19T05:49:49.840Z,13.83
2022-11-19T05:52:16.259Z,14.80
2022-11-19T05:54:42.647Z,13.77
2022-11-19T05:57:09.053Z,14.40
2022-11-19T05:59:38.428Z,17.10
2022-11-19T06:02:07.370Z,13.90
2022-11-19T06:04:33.815Z,14.20
2022-11-19T06:07:00.337Z,17.37
2022-11-19T06:09:27.637Z,14.37
2022-11-19T06:11:54.230Z,14.17
2022-11-19T06:14:25.108Z,15.90
2022-11-19T06:16:56.810Z,13.37
2022-11-19T06:19:24.632Z,16.63
2022-11-19T06:21:51.797Z,15.37
2022-11-19T06:24:18.995Z,14.50
2022-11-19T06:26:45.632Z,13.23
2022-11-19T06:29:16.247Z,14.73
2022-11-19T06:31:42.983Z,12.40
2022-11-19T06:34:10.043Z,14.57
2022-11-19T06:36:41.851Z,13.07
2022-11-19T06:39:11.553Z,13.83
2022-11-19T06:41:38.271Z,13.27
2022-11-19T06:44:05.005Z,13.50
2022-11-19T06:46:31.741Z,13.87
2022-11-19T06:48:58.260Z,13.83
2022-11-19T06:51:24.769Z,15.07
2022-11-19T06:53:51.982Z,13.77
2022-11-19T06:56:18.717Z,14.57
2022-11-19T06:58:45.465Z,14.63
2022-11-19T07:01:14.520Z,16.70
2022-11-19T07:03:41.588Z,14.33
2022-11-19T07:06:08.140Z,13.83
2022-11-19T07:08:35.901Z,13.43
2022-11-19T07:11:23.010Z,14.33
2022-11-19T07:14:00.129Z,13.13
2022-11-19T07:16:35.362Z,12.03
2022-11-19T07:19:04.781Z,14.57
2022-11-19T07:21:31.847Z,13.30
2022-11-19T07:23:59.808Z,15.30
2022-11-19T07:26:27.261Z,13.60
2022-11-19T07:28:54.915Z,12.47
2022-11-19T07:31:21.603Z,16.03
2022-11-19T07:33:48.637Z,14.23
2022-11-19T07:36:18.405Z,18.37
2022-11-19T07:38:45.460Z,19.10
2022-11-19T07:41:30.598Z,15.43
2022-11-19T07:43:57.104Z,15.80
2022-11-19T07:46:23.820Z,19.83
2022-11-19T07:48:54.793Z,14.77
2022-11-19T07:51:21.545Z,13.73
2022-11-19T07:53:48.124Z,12.83
2022-11-19T07:56:14.635Z,16.23
2022-11-19T07:58:41.141Z,18.13
2022-11-19T08:01:19.824Z,18.73
2022-11-19T08:03:51.861Z,16.87
2022-11-19T08:06:22.262Z,14.13
2022-11-19T08:08:48.743Z,20.57
2022-11-19T08:11:16.143Z,17.00
2022-11-19T08:13:43.170Z,14.53
2022-11-19T08:16:12.171Z,14.43
2022-11-19T08:18:39.069Z,15.87
2022-11-19T08:21:07.807Z,15.73
2022-11-19T08:23:35.226Z,15.97
2022-11-19T08:26:02.062Z,17.97
2022-11-19T08:28:28.856Z,15.73
2022-11-19T08:30:55.345Z,15.80
2022-11-19T08:33:22.042Z,17.20
2022-11-19T08:35:48.885Z,16.23
2022-11-19T08:38:15.291Z,16.07
2022-11-19T08:40:41.751Z,16.37
2022-11-19T08:43:08.178Z,16.13
2022-11-19T08:45:38.851Z,15.77
2022-11-19T08:48:07.554Z,14.13
2022-11-19T08:50:34.419Z,14.60
2022-11-19T08:53:03.085Z,15.80
2022-11-19T08:55:30.960Z,16.53
2022-11-19T08:58:07.540Z,15.87
2022-11-19T09:00:35.778Z,17.03
2022-11-19T09:03:02.256Z,14.40
2022-11-19T09:05:28.691Z,14.80
2022-11-19T09:07:55.494Z,16.53
2022-11-19T09:10:21.922Z,15.53
2022-11-19T09:12:49.371Z,15.50
2022-11-19T09:15:16.003Z,14.40
2022-11-19T09:17:46.777Z,11.67
2022-11-19T09:20:13.810Z,13.03
2022-11-19T09:22:40.661Z,14.30
2022-11-19T09:25:08.927Z,13.03
2022-11-19T09:27:36.709Z,12.13
2022-11-19T09:30:04.799Z,10.60
2022-11-19T09:32:31.371Z,11.13
2022-11-19T09:34:57.781Z,12.53
2022-11-19T09:37:24.247Z,12.80
2022-11-19T09:39:50.659Z,13.80
2022-11-19T09:42:36.767Z,9.97
2022-11-19T09:45:09.646Z,9.67
2022-11-19T09:47:45.974Z,10.03
2022-11-19T09:50:22.995Z,12.90
2022-11-19T09:53:03.103Z,13.50
2022-11-19T09:55:31.135Z,12.50
2022-11-19T09:57:58.978Z,10.13
2022-11-19T10:00:28.367Z,10.63
2022-11-19T10:02:56.744Z,10.67
2022-11-19T10:05:29.557Z,8.83
2022-11-19T10:08:13.362Z,8.30
2022-11-19T10:10:49.092Z,10.10
2022-11-19T10:13:31.508Z,10.23
2022-11-19T10:16:28.691Z,8.73
2022-11-19T10:19:06.388Z,8.23
2022-11-19T10:21:40.546Z,9.03
2022-11-19T10:24:20.085Z,10.10
2022-11-19T10:27:01.962Z,10.70
2022-11-19T10:29:34.764Z,9.37
2022-11-19T10:32:32.846Z,8.40
2022-11-19T10:35:04.028Z,8.93
2022-11-19T10:37:34.733Z,10.57
2022-11-19T10:40:13.643Z,10.00
2022-11-19T10:42:42.845Z,10.50
2022-11-19T10:45:19.049Z,7.63
2022-11-19T10:47:58.685Z,8.73
2022-11-19T10:50:29.309Z,7.27
2022-11-19T10:52:59.377Z,9.77
2022-11-19T10:55:27.318Z,12.03
2022-11-19T10:58:25.087Z,8.33
2022-11-19T11:00:54.910Z,6.97
2022-11-19T11:03:32.709Z,8.23
2022-11-19T11:06:06.619Z,8.40
2022-11-19T11:08:34.197Z,9.00
2022-11-19T11:11:01.200Z,7.50
2022-11-19T11:14:01.877Z,7.50
2022-11-19T11:16:43.295Z,8.03
2022-11-19T11:19:15.330Z,7.23
2022-11-19T11:21:43.646Z,7.90
2022-11-19T11:24:14.182Z,7.60
2022-11-19T11:26:41.249Z,8.70
2022-11-19T11:29:13.747Z,8.17
2022-11-19T11:31:47.288Z,9.47
2022-11-19T11:34:37.408Z,8.57
2022-11-19T11:37:05.656Z,7.57
2022-11-19T11:39:37.575Z,8.83
2022-11-19T11:42:06.247Z,8.67
2022-11-19T11:44:35.244Z,9.63
2022-11-19T11:47:05.001Z,11.50
2022-11-19T11:49:37.636Z,8.43
2022-11-19T11:52:04.116Z,7.33
2022-11-19T11:54:30.889Z,7.67
2022-11-19T11:57:12.669Z,8.37
2022-11-19T11:59:39.211Z,9.37
2022-11-19T12:02:07.713Z,8.17
2022-11-19T12:04:35.856Z,8.93
2022-11-19T12:07:37.761Z,8.70
2022-11-19T12:10:19.196Z,9.20
2022-11-19T12:13:10.216Z,8.70
2022-11-19T12:15:51.645Z,6.27
2022-11-19T12:18:32.163Z,8.13
2022-11-19T12:21:11.770Z,8.80
2022-11-19T12:24:03.966Z,7.27
2022-11-19T12:27:00.888Z,8.73
2022-11-19T12:30:11.825Z,9.90
2022-11-19T12:33:15.712Z,8.93
2022-11-19T12:35:51.373Z,11.17
2022-11-19T12:38:27.053Z,8.60
2022-11-19T12:41:11.379Z,9.23
2022-11-19T12:43:52.652Z,8.70
2022-11-19T12:46:57.781Z,9.67
2022-11-19T12:49:36.518Z,7.90
2022-11-19T12:52:15.490Z,8.83
2022-11-19T12:55:38.796Z,10.53
2022-11-19T12:58:17.172Z,8.30
2022-11-19T13:00:52.385Z,7.10
2022-11-19T13:03:26.009Z,22.27
2022-11-19T13:06:04.529Z,12.23
2022-11-19T13:08:36.689Z,13.40
2022-11-19T13:11:10.967Z,7.67
2022-11-19T13:13:39.990Z,7.43
2022-11-19T13:16:10.663Z,7.33
2022-11-19T13:18:40.330Z,7.00
2022-11-19T13:21:22.748Z,7.60
2022-11-19T13:23:50.030Z,6.87
2022-11-19T13:26:20.413Z,6.27
2022-11-19T13:28:51.179Z,8.70
2022-11-19T13:31:36.918Z,11.77
2022-11-19T13:34:18.963Z,12.03
2022-11-19T13:36:51.885Z,13.37
2022-11-19T13:39:35.284Z,9.53
2022-11-19T13:42:22.391Z,10.93
2022-11-19T13:44:49.212Z,10.37
2022-11-19T13:47:22.451Z,8.47
2022-11-19T13:49:59.579Z,9.47
2022-11-19T13:52:43.569Z,8.13
2022-11-19T13:55:42.377Z,10.23
2022-11-19T13:58:19.151Z,10.60
2022-11-19T14:01:08.477Z,9.73
2022-11-19T14:04:00.306Z,8.57
2022-11-19T14:07:07.220Z,9.13
2022-11-19T14:10:06.499Z,8.43
2022-11-19T14:13:07.356Z,7.33
2022-11-19T14:16:13.634Z,8.40
2022-11-19T14:19:01.401Z,8.33
2022-11-19T14:21:46.456Z,7.50
2022-11-19T14:24:43.659Z,14.40
2022-11-19T14:27:33.177Z,18.13
2022-11-19T14:30:08.943Z,10.37
2022-11-19T14:32:47.472Z,13.47
2022-11-19T14:35:26.142Z,19.50
2022-11-19T14:38:18.986Z,29.63
2022-11-19T14:40:45.433Z,11.23
2022-11-19T14:43:30.438Z,11.53
2022-11-19T14:46:07.970Z,13.47
2022-11-19T14:48:40.173Z,14.10
2022-11-19T14:51:19.274Z,11.53
2022-11-19T14:54:07.737Z,11.40
2022-11-19T14:56:36.616Z,13.73
2022-11-19T14:59:15.334Z,13.87
2022-11-19T15:02:27.192Z,13.70
2022-11-19T15:04:57.903Z,17.33
2022-11-19T15:07:33.753Z,41.83
2022-11-19T15:10:11.350Z,20.20
2022-11-19T15:12:43.915Z,15.83
2022-11-19T15:15:19.413Z,14.73
2022-11-19T15:18:14.126Z,37.27
2022-11-19T15:21:02.716Z,43.70
2022-11-19T15:23:35.881Z,29.57
2022-11-19T15:26:40.003Z,59.07
2022-11-19T15:29:12.661Z,26.37
2022-11-19T15:31:57.427Z,21.83
2022-11-19T15:35:04.158Z,30.53
2022-11-19T15:37:43.300Z,20.87
2022-11-19T15:40:15.192Z,17.43
2022-11-19T15:42:48.085Z,27.03
2022-11-19T15:45:21.193Z,13.87
2022-11-19T15:47:52.434Z,12.97
2022-11-19T15:50:25.400Z,24.73
2022-11-19T15:52:59.322Z,17.63
2022-11-19T15:55:29.047Z,34.37
2022-11-19T15:57:56.672Z,26.90
2022-11-19T16:00:23.864Z,20.67
2022-11-19T16:02:51.896Z,28.90
2022-11-19T16:05:29.695Z,18.63
2022-11-19T16:07:57.008Z,15.97
2022-11-19T16:10:31.549Z,13.20
2022-11-19T16:13:19.503Z,12.17
2022-11-19T16:16:10.292Z,14.67
2022-11-19T16:18:51.529Z,33.17
2022-11-19T16:21:26.039Z,54.47
2022-11-19T16:24:11.144Z,48.37
2022-11-19T16:26:39.743Z,26.07
2022-11-19T16:29:06.461Z,15.57
2022-11-19T16:31:32.988Z,17.73
2022-11-19T16:33:59.450Z,14.53
2022-11-19T16:36:30.059Z,14.47
2022-11-19T16:38:57.489Z,15.80
2022-11-19T16:41:43.573Z,13.90
2022-11-19T16:44:12.791Z,15.20
2022-11-19T16:46:39.669Z,18.07
2022-11-19T16:49:33.081Z,18.93
2022-11-19T16:52:00.023Z,18.50
2022-11-19T16:54:49.832Z,24.03
2022-11-19T16:57:24.010Z,22.53
2022-11-19T17:00:05.498Z,17.77
2022-11-19T17:02:39.723Z,22.37
2022-11-19T17:05:09.032Z,22.40
2022-11-19T17:07:36.847Z,21.43
2022-11-19T17:10:12.606Z,23.10
2022-11-19T17:12:58.862Z,17.97
2022-11-19T17:15:42.307Z,19.23
2022-11-19T17:18:17.314Z,19.97
2022-11-19T17:20:43.689Z,22.13
2022-11-19T17:23:14.935Z,18.80
2022-11-19T17:25:54.073Z,21.47
2022-11-19T17:28:36.167Z,17.90
2022-11-19T17:31:05.469Z,19.33
2022-11-19T17:33:35.677Z,24.27
2022-11-19T17:36:03.468Z,22.33
2022-11-19T17:38:31.459Z,20.50
2022-11-19T17:41:01.485Z,22.27
2022-11-19T17:43:54.848Z,21.33
2022-11-19T17:46:22.344Z,19.63
2022-11-19T17:48:50.060Z,17.20
2022-11-19T17:51:18.816Z,21.07
2022-11-19T17:53:46.015Z,22.20
2022-11-19T17:56:25.569Z,20.43
2022-11-19T17:58:52.343Z,19.00
2022-11-19T18:01:19.218Z,20.77
2022-11-19T18:03:46.577Z,21.33
2022-11-19T18:06:15.107Z,20.73
2022-11-19T18:08:42.298Z,23.93
2022-11-19T18:11:27.089Z,22.63
2022-11-19T18:13:55.275Z,25.17
2022-11-19T18:16:24.110Z,28.83
2022-11-19T18:18:50.881Z,27.53
2022-11-19T18:21:20.733Z,29.70
2022-11-19T18:23:48.549Z,28.97
2022-11-19T18:26:16.685Z,24.47
2022-11-19T18:28:45.025Z,25.13
2022-11-19T18:31:19.303Z,25.73
2022-11-19T18:33:48.083Z,23.67
2022-11-19T18:36:15.630Z,26.03
2022-11-19T18:38:42.956Z,28.40
2022-11-19T18:41:10.811Z,31.67
2022-11-19T18:43:55.870Z,27.47
2022-11-19T18:46:22.402Z,26.43
2022-11-19T18:48:48.876Z,27.53
2022-11-19T18:51:15.408Z,27.13
2022-11-19T18:53:41.878Z,30.57
2022-11-19T18:56:14.658Z,33.50
2022-11-19T18:58:41.292Z,37.90
2022-11-19T19:01:08.019Z,35.60
2022-11-19T19:03:34.951Z,35.93
2022-11-19T19:06:02.773Z,38.03
2022-11-19T19:08:30.394Z,30.57
2022-11-19T19:11:17.651Z,31.23
2022-11-19T19:13:45.294Z,32.50
2022-11-19T19:16:12.503Z,32.47
2022-11-19T19:18:39.425Z,33.47
2022-11-19T19:21:13.734Z,37.77
2022-11-19T19:23:40.599Z,36.53
2022-11-19T19:26:08.314Z,35.80
2022-11-19T19:28:36.487Z,39.80
2022-11-19T19:31:04.637Z,39.13
2022-11-19T19:33:31.466Z,37.57
2022-11-19T19:35:58.316Z,37.77
2022-11-19T19:38:25.201Z,37.00
2022-11-19T19:40:51.879Z,37.93
2022-11-19T19:43:18.480Z,34.80
2022-11-19T19:45:45.230Z,34.50
2022-11-19T19:48:11.665Z,33.43
2022-11-19T19:50:38.094Z,29.80
2022-11-19T19:53:05.350Z,29.37
2022-11-19T19:55:32.343Z,29.87
2022-11-19T19:58:00.251Z,28.27
2022-11-19T20:00:26.934Z,31.03
2022-11-19T20:02:53.564Z,28.27
2022-11-19T20:05:20.096Z,25.23
2022-11-19T20:07:46.759Z,27.07
2022-11-19T20:10:13.291Z,30.87
2022-11-19T20:12:58.309Z,24.30
2022-11-19T20:15:24.823Z,31.63
2022-11-19T20:17:52.004Z,28.33
2022-11-19T20:20:19.723Z,28.80
2022-11-19T20:22:47.568Z,25.87
2022-11-19T20:25:15.660Z,26.90
2022-11-19T20:27:43.398Z,25.83
2022-11-19T20:30:10.983Z,22.97
2022-11-19T20:32:37.584Z,24.00
2022-11-19T20:35:04.534Z,23.93
2022-11-19T20:37:30.949Z,22.73
2022-11-19T20:39:57.628Z,25.87
2022-11-19T20:42:42.735Z,25.70
2022-11-19T20:45:09.611Z,27.93
2022-11-19T20:47:36.091Z,26.80
2022-11-19T20:50:02.718Z,26.33
2022-11-19T20:52:29.282Z,29.57
2022-11-19T20:54:56.531Z,28.70
2022-11-19T20:57:23.650Z,27.73
2022-11-19T20:59:50.525Z,26.13
2022-11-19T21:02:17.576Z,26.67
2022-11-19T21:04:44.117Z,26.63
2022-11-19T21:07:10.871Z,26.13
2022-11-19T21:09:37.807Z,31.23
2022-11-19T21:12:04.548Z,27.17
2022-11-19T21:14:31.094Z,25.13
2022-11-19T21:16:57.685Z,25.37
2022-11-19T21:19:24.349Z,27.50
2022-11-19T21:21:51.178Z,28.13
2022-11-19T21:24:17.760Z,28.17
2022-11-19T21:26:44.224Z,27.10
2022-11-19T21:29:10.853Z,27.47
2022-11-19T21:31:45.758Z,26.53
2022-11-19T21:34:20.724Z,28.13
2022-11-19T21:36:48.063Z,31.53
2022-11-19T21:39:16.556Z,26.27
2022-11-19T21:41:44.196Z,25.17
2022-11-19T21:44:12.476Z,25.53
2022-11-19T21:46:40.714Z,24.10
2022-11-19T21:49:07.281Z,27.00
2022-11-19T21:51:33.950Z,24.77
2022-11-19T21:54:00.545Z,25.93
2022-11-19T21:56:32.475Z,22.83
2022-11-19T21:59:03.957Z,26.00
2022-11-19T22:01:30.390Z,21.00
2022-11-19T22:03:56.941Z,24.70
2022-11-19T22:06:23.402Z,23.60
2022-11-19T22:08:49.879Z,21.13
2022-11-19T22:11:28.481Z,24.23
2022-11-19T22:13:59.639Z,25.00
2022-11-19T22:16:26.534Z,23.70
2022-11-19T22:18:52.971Z,28.33
2022-11-19T22:21:19.440Z,29.37
2022-11-19T22:23:46.503Z,26.20
2022-11-19T22:26:13.313Z,28.77
2022-11-19T22:28:40.082Z,26.03
2022-11-19T22:31:07.020Z,30.77
2022-11-19T22:33:35.449Z,24.83
2022-11-19T22:36:09.227Z,27.90
2022-11-19T22:38:36.396Z,27.13
2022-11-19T22:41:14.234Z,28.37
2022-11-19T22:43:41.502Z,27.00
2022-11-19T22:46:09.639Z,28.80
2022-11-19T22:48:36.759Z,32.30
2022-11-19T22:51:11.613Z,26.23
2022-11-19T22:53:39.670Z,30.20
2022-11-19T22:56:08.358Z,27.87
2022-11-19T22:58:35.961Z,25.10
2022-11-19T23:01:02.633Z,29.07
2022-11-19T23:03:29.386Z,25.93
2022-11-19T23:05:56.371Z,25.70
2022-11-19T23:08:23.019Z,25.90
2022-11-19T23:10:57.602Z,25.67
2022-11-19T23:13:33.601Z,23.10
2022-11-19T23:16:04.284Z,25.20
2022-11-19T23:18:32.891Z,24.77
2022-11-19T23:21:01.563Z,23.33
2022-11-19T23:23:28.185Z,25.27
2022-11-19T23:25:58.630Z,22.47
2022-11-19T23:28:26.066Z,23.37
2022-11-19T23:30:53.308Z,25.97
2022-11-19T23:33:20.492Z,18.30
2022-11-19T23:35:47.712Z,21.77
2022-11-19T23:38:15.672Z,21.87
2022-11-19T23:40:42.530Z,25.90
2022-11-19T23:43:09.000Z,23.77
2022-11-19T23:45:36.481Z,21.30
2022-11-19T23:48:03.022Z,20.50
2022-11-19T23:50:29.692Z,19.97
2022-11-19T23:52:56.237Z,27.37
2022-11-19T23:55:24.582Z,28.30
2022-11-19T23:57:54.102Z,22.67
